sensor_id;sensor_type;location;lat;lon;timestamp;pressure;altitude;pressure_sealevel;temperature;humidity
6833;BME280;3454;42.654;23.378;2023-03-30T00:02:23;63558.13;;;5.97;51.56
6833;BME280;3454;42.654;23.378;2023-03-30T00:04:49;63550.41;;;5.94;51.28
6833;BME280;3454;42.654;23.378;2023-03-30T00:07:15;63555.09;;;5.96;51.42
6833;BME280;3454;42.654;23.378;2023-03-30T00:09:40;63552.59;;;5.96;51.35
6833;BME280;3454;42.654;23.378;2023-03-30T00:12:07;63548.22;;;5.92;51.57
6833;BME280;3454;42.654;23.378;2023-03-30T00:14:33;63540.06;;;5.84;52.07
6833;BME280;3454;42.654;23.378;2023-03-30T00:17:05;63557.25;;;5.98;51.04
6833;BME280;3454;42.654;23.378;2023-03-30T00:19:32;63549.56;;;5.96;51.44
6833;BME280;3454;42.654;23.378;2023-03-30T00:21:57;63560.00;;;6.01;51.45
6833;BME280;3454;42.654;23.378;2023-03-30T00:24:22;63554.25;;;5.98;51.48
6833;BME280;3454;42.654;23.378;2023-03-30T00:26:48;63551.84;;;5.93;51.94
6833;BME280;3454;42.654;23.378;2023-03-30T00:29:14;63550.41;;;5.94;51.92
6833;BME280;3454;42.654;23.378;2023-03-30T00:31:39;63550.19;;;5.91;51.99
6833;BME280;3454;42.654;23.378;2023-03-30T00:34:05;63549.31;;;5.93;52.13
6833;BME280;3454;42.654;23.378;2023-03-30T00:36:31;63547.69;;;5.91;52.19
6833;BME280;3454;42.654;23.378;2023-03-30T00:39:04;63549.66;;;5.91;52.53
6833;BME280;3454;42.654;23.378;2023-03-30T00:41:32;63541.69;;;5.86;53.06
6833;BME280;3454;42.654;23.378;2023-03-30T00:44:01;63536.56;;;5.79;53.34
6833;BME280;3454;42.654;23.378;2023-03-30T00:46:28;63538.75;;;5.81;53.84
6833;BME280;3454;42.654;23.378;2023-03-30T00:48:56;63520.66;;;5.69;55.29
6833;BME280;3454;42.654;23.378;2023-03-30T00:51:25;63526.44;;;5.72;55.87
6833;BME280;3454;42.654;23.378;2023-03-30T00:53:54;63513.91;;;5.60;56.89
6833;BME280;3454;42.654;23.378;2023-03-30T00:56:22;63521.31;;;5.65;57.42
6833;BME280;3454;42.654;23.378;2023-03-30T00:58:52;63514.47;;;5.61;57.68
6833;BME280;3454;42.654;23.378;2023-03-30T01:01:19;63518.25;;;5.64;57.59
6833;BME280;3454;42.654;23.378;2023-03-30T01:03:50;63514.47;;;5.61;58.03
6833;BME280;3454;42.654;23.378;2023-03-30T01:06:18;63509.31;;;5.54;58.80
6833;BME280;3454;42.654;23.378;2023-03-30T01:08:54;63501.38;;;5.49;59.06
6833;BME280;3454;42.654;23.378;2023-03-30T01:11:22;63500.63;;;5.46;58.88
6833;BME280;3454;42.654;23.378;2023-03-30T01:13:50;63495.94;;;5.44;59.24
6833;BME280;3454;42.654;23.378;2023-03-30T01:47:05;63511.81;;;5.54;58.55
6833;BME280;3454;42.654;23.378;2023-03-30T01:52:17;63505.75;;;5.53;57.32
6833;BME280;3454;42.654;23.378;2023-03-30T01:55:13;63501.94;;;5.49;57.62
6833;BME280;3454;42.654;23.378;2023-03-30T01:57:52;63498.44;;;5.44;57.84
6833;BME280;3454;42.654;23.378;2023-03-30T02:00:21;63492.13;;;5.40;57.97
6833;BME280;3454;42.654;23.378;2023-03-30T02:02:55;63494.09;;;5.40;58.49
6833;BME280;3454;42.654;23.378;2023-03-30T02:05:25;63494.09;;;5.40;58.42
6833;BME280;3454;42.654;23.378;2023-03-30T02:08:14;63487.78;;;5.36;59.53
6833;BME280;3454;42.654;23.378;2023-03-30T02:10:40;63481.03;;;5.28;60.34
6833;BME280;3454;42.654;23.378;2023-03-30T02:13:08;63481.56;;;5.28;60.72
6833;BME280;3454;42.654;23.378;2023-03-30T02:15:38;63482.34;;;5.31;60.19
6833;BME280;3454;42.654;23.378;2023-03-30T02:18:05;63480.38;;;5.32;60.28
6833;BME280;3454;42.654;23.378;2023-03-30T02:20:31;63481.25;;;5.30;60.49
6833;BME280;3454;42.654;23.378;2023-03-30T02:22:58;63479.72;;;5.24;61.21
6833;BME280;3454;42.654;23.378;2023-03-30T02:25:24;63481.78;;;5.31;61.11
6833;BME280;3454;42.654;23.378;2023-03-30T02:27:56;63479.06;;;5.28;61.55
6833;BME280;3454;42.654;23.378;2023-03-30T02:30:21;63482.66;;;5.29;61.95
6833;BME280;3454;42.654;23.378;2023-03-30T02:32:51;63478.19;;;5.30;62.05
6833;BME280;3454;42.654;23.378;2023-03-30T02:46:41;63467.44;;;5.15;64.22
6833;BME280;3454;42.654;23.378;2023-03-30T02:49:15;63463.84;;;5.14;64.90
6833;BME280;3454;42.654;23.378;2023-03-30T02:51:48;63454.34;;;5.03;66.79
6833;BME280;3454;42.654;23.378;2023-03-30T02:56:51;63460.03;;;5.10;68.15
6833;BME280;3454;42.654;23.378;2023-03-30T02:59:27;63463.59;;;5.11;68.93
6833;BME280;3454;42.654;23.378;2023-03-30T03:02:05;63460.03;;;5.10;69.64
6833;BME280;3454;42.654;23.378;2023-03-30T03:04:33;63445.13;;;4.94;70.73
6833;BME280;3454;42.654;23.378;2023-03-30T03:06:59;63454.91;;;5.03;71.19
6833;BME280;3454;42.654;23.378;2023-03-30T03:09:27;63447.81;;;4.97;71.86
6833;BME280;3454;42.654;23.378;2023-03-30T03:11:54;63452.72;;;5.01;72.05
6833;BME280;3454;42.654;23.378;2023-03-30T03:14:20;63450.22;;;5.01;72.33
6833;BME280;3454;42.654;23.378;2023-03-30T03:16:46;63437.94;;;4.92;73.15
6833;BME280;3454;42.654;23.378;2023-03-30T03:19:11;63437.16;;;4.89;74.12
6833;BME280;3454;42.654;23.378;2023-03-30T03:21:36;63428.78;;;4.79;74.08
6833;BME280;3454;42.654;23.378;2023-03-30T03:24:03;63438.03;;;4.88;75.08
6833;BME280;3454;42.654;23.378;2023-03-30T03:26:28;63432.38;;;4.80;75.21
6833;BME280;3454;42.654;23.378;2023-03-30T03:28:54;63424.44;;;4.75;76.19
6833;BME280;3454;42.654;23.378;2023-03-30T03:31:19;63424.44;;;4.75;76.68
6833;BME280;3454;42.654;23.378;2023-03-30T03:33:46;63430.97;;;4.81;76.71
6833;BME280;3454;42.654;23.378;2023-03-30T03:36:11;63418.44;;;4.70;77.52
6833;BME280;3454;42.654;23.378;2023-03-30T03:38:37;63422.25;;;4.73;77.59
6833;BME280;3454;42.654;23.378;2023-03-30T03:41:02;63419.75;;;4.73;78.20
6833;BME280;3454;42.654;23.378;2023-03-30T03:43:29;63420.31;;;4.74;78.88
6833;BME280;3454;42.654;23.378;2023-03-30T03:45:55;63422.25;;;4.73;79.50
6833;BME280;3454;42.654;23.378;2023-03-30T03:48:22;63435.31;;;4.85;81.97
6833;BME280;3454;42.654;23.378;2023-03-30T03:50:50;63430.19;;;4.78;79.65
6833;BME280;3454;42.654;23.378;2023-03-30T03:53:16;63424.44;;;4.75;80.49
6833;BME280;3454;42.654;23.378;2023-03-30T03:55:43;63423.34;;;4.74;80.91
6833;BME280;3454;42.654;23.378;2023-03-30T03:58:09;63420.06;;;4.71;81.73
6833;BME280;3454;42.654;23.378;2023-03-30T04:00:34;63414.09;;;4.66;81.83
6833;BME280;3454;42.654;23.378;2023-03-30T04:03:00;63405.94;;;4.58;82.76
6833;BME280;3454;42.654;23.378;2023-03-30T04:05:25;63411.69;;;4.61;83.20
6833;BME280;3454;42.654;23.378;2023-03-30T04:07:51;63397.78;;;4.51;83.72
6833;BME280;3454;42.654;23.378;2023-03-30T04:10:19;63428.78;;;4.79;83.43
6833;BME280;3454;42.654;23.378;2023-03-30T04:12:45;63413.00;;;4.65;83.58
6833;BME280;3454;42.654;23.378;2023-03-30T04:15:11;63419.53;;;4.71;83.60
6833;BME280;3454;42.654;23.378;2023-03-30T04:17:36;63398.31;;;4.51;83.98
6833;BME280;3454;42.654;23.378;2023-03-30T04:20:03;63403.78;;;4.56;84.46
6833;BME280;3454;42.654;23.378;2023-03-30T04:22:29;63389.84;;;4.46;85.41
6833;BME280;3454;42.654;23.378;2023-03-30T04:24:58;63393.97;;;4.47;85.73
6833;BME280;3454;42.654;23.378;2023-03-30T04:27:24;63401.28;;;4.56;86.22
6833;BME280;3454;42.654;23.378;2023-03-30T04:29:50;63395.59;;;4.49;85.70
6833;BME280;3454;42.654;23.378;2023-03-30T04:32:16;63407.81;;;4.62;85.65
6833;BME280;3454;42.654;23.378;2023-03-30T04:34:46;63401.28;;;4.56;85.67
6833;BME280;3454;42.654;23.378;2023-03-30T04:37:11;63408.13;;;4.60;85.19
6833;BME280;3454;42.654;23.378;2023-03-30T04:39:45;63421.19;;;4.72;84.78
6833;BME280;3454;42.654;23.378;2023-03-30T04:42:11;63423.34;;;4.74;84.97
6833;BME280;3454;42.654;23.378;2023-03-30T04:44:44;63416.50;;;4.70;84.72
6833;BME280;3454;42.654;23.378;2023-03-30T04:47:09;63415.97;;;4.70;84.24
6833;BME280;3454;42.654;23.378;2023-03-30T04:49:35;63416.59;;;4.66;84.44
6833;BME280;3454;42.654;23.378;2023-03-30T04:52:26;63414.31;;;4.68;84.03
6833;BME280;3454;42.654;23.378;2023-03-30T04:54:51;63427.69;;;4.78;83.26
6833;BME280;3454;42.654;23.378;2023-03-30T04:57:17;63433.13;;;4.83;83.11
6833;BME280;3454;42.654;23.378;2023-03-30T04:59:43;63434.44;;;4.87;82.35
6833;BME280;3454;42.654;23.378;2023-03-30T05:02:09;63524.56;;;5.68;100.00
6833;BME280;3454;42.654;23.378;2023-03-30T05:04:36;63618.31;;;6.54;100.00
6833;BME280;3454;42.654;23.378;2023-03-30T05:07:03;63591.06;;;6.29;84.19
6833;BME280;3454;42.654;23.378;2023-03-30T05:09:28;63563.47;;;6.06;81.35
6833;BME280;3454;42.654;23.378;2023-03-30T05:11:54;63562.41;;;6.05;80.13
6833;BME280;3454;42.654;23.378;2023-03-30T05:14:19;63547.69;;;5.91;80.00
6833;BME280;3454;42.654;23.378;2023-03-30T05:16:45;63532.19;;;5.75;81.14
6833;BME280;3454;42.654;23.378;2023-03-30T05:19:11;63544.19;;;5.86;79.55
6833;BME280;3454;42.654;23.378;2023-03-30T05:21:36;63538.75;;;5.81;81.08
6833;BME280;3454;42.654;23.378;2023-03-30T05:24:02;63542.00;;;5.84;80.50
6833;BME280;3454;42.654;23.378;2023-03-30T05:26:27;63547.16;;;5.91;79.06
6833;BME280;3454;42.654;23.378;2023-03-30T05:28:53;63544.41;;;5.88;78.20
6833;BME280;3454;42.654;23.378;2023-03-30T05:31:19;63546.69;;;5.86;78.85
6833;BME280;3454;42.654;23.378;2023-03-30T05:33:45;63545.53;;;5.89;78.15
6833;BME280;3454;42.654;23.378;2023-03-30T05:36:11;63551.28;;;5.92;79.70
6833;BME280;3454;42.654;23.378;2023-03-30T05:38:37;63556.41;;;6.00;79.67
6833;BME280;3454;42.654;23.378;2023-03-30T05:41:03;63561.31;;;6.04;79.29
6833;BME280;3454;42.654;23.378;2023-03-30T05:43:32;63556.19;;;5.97;79.45
6833;BME280;3454;42.654;23.378;2023-03-30T05:45:58;63557.25;;;5.98;80.29
6833;BME280;3454;42.654;23.378;2023-03-30T05:48:23;63564.91;;;6.05;79.22
6833;BME280;3454;42.654;23.378;2023-03-30T05:50:49;63564.13;;;6.02;79.93
6833;BME280;3454;42.654;23.378;2023-03-30T05:53:15;63571.44;;;6.11;79.96
6833;BME280;3454;42.654;23.378;2023-03-30T05:55:44;63581.47;;;6.23;86.43
6833;BME280;3454;42.654;23.378;2023-03-30T05:58:11;63589.09;;;6.30;81.33
6833;BME280;3454;42.654;23.378;2023-03-30T06:00:38;63591.06;;;6.29;81.11
6833;BME280;3454;42.654;23.378;2023-03-30T06:03:06;63581.22;;;6.20;82.59
6833;BME280;3454;42.654;23.378;2023-03-30T06:05:37;63583.66;;;6.25;82.96
6833;BME280;3454;42.654;23.378;2023-03-30T06:08:09;63575.78;;;6.15;84.71
6833;BME280;3454;42.654;23.378;2023-03-30T06:10:35;63585.06;;;6.24;83.65
6833;BME280;3454;42.654;23.378;2023-03-30T06:13:01;63589.63;;;6.30;83.56
6833;BME280;3454;42.654;23.378;2023-03-30T06:15:27;63597.59;;;6.35;85.17
6833;BME280;3454;42.654;23.378;2023-03-30T06:17:53;63595.97;;;6.34;85.09
6833;BME280;3454;42.654;23.378;2023-03-30T06:20:20;63589.63;;;6.30;86.50
6833;BME280;3454;42.654;23.378;2023-03-30T06:22:48;63594.31;;;6.32;84.51
6833;BME280;3454;42.654;23.378;2023-03-30T06:25:14;63594.84;;;6.33;84.16
6833;BME280;3454;42.654;23.378;2023-03-30T06:27:40;63595.63;;;6.36;85.05
6833;BME280;3454;42.654;23.378;2023-03-30T06:30:06;63589.63;;;6.30;84.70
6833;BME280;3454;42.654;23.378;2023-03-30T06:32:35;63584.19;;;6.25;83.65
6833;BME280;3454;42.654;23.378;2023-03-30T06:35:02;63590.50;;;6.29;82.60
6833;BME280;3454;42.654;23.378;2023-03-30T06:37:32;63581.22;;;6.20;83.06
6833;BME280;3454;42.654;23.378;2023-03-30T06:39:58;63576.78;;;6.21;83.62
6833;BME280;3454;42.654;23.378;2023-03-30T06:42:26;63602.50;;;6.40;82.19
6833;BME280;3454;42.654;23.378;2023-03-30T06:44:52;63612.84;;;6.49;82.26
6833;BME280;3454;42.654;23.378;2023-03-30T06:47:17;63618.00;;;6.56;81.42
6833;BME280;3454;42.654;23.378;2023-03-30T06:49:44;63618.00;;;6.56;82.61
6833;BME280;3454;42.654;23.378;2023-03-30T06:52:10;63634.09;;;6.69;80.97
6833;BME280;3454;42.654;23.378;2023-03-30T06:54:37;63644.91;;;6.84;79.54
6833;BME280;3454;42.654;23.378;2023-03-30T06:57:02;63650.16;;;6.86;79.85
6833;BME280;3454;42.654;23.378;2023-03-30T06:59:28;63660.50;;;6.96;77.90
6833;BME280;3454;42.654;23.378;2023-03-30T07:01:53;63670.41;;;7.00;77.90
6833;BME280;3454;42.654;23.378;2023-03-30T07:04:19;63668.47;;;7.01;78.48
6833;BME280;3454;42.654;23.378;2023-03-30T07:06:46;63681.56;;;7.13;78.18
6833;BME280;3454;42.654;23.378;2023-03-30T07:09:11;63658.88;;;6.94;77.18
6833;BME280;3454;42.654;23.378;2023-03-30T07:11:37;63646.66;;;6.81;77.04
6833;BME280;3454;42.654;23.378;2023-03-30T07:14:03;63684.81;;;7.16;77.11
6833;BME280;3454;42.654;23.378;2023-03-30T07:16:29;63716.47;;;7.45;75.85
6833;BME280;3454;42.654;23.378;2023-03-30T07:18:55;63735.78;;;7.65;74.53
6833;BME280;3454;42.654;23.378;2023-03-30T07:21:20;63740.13;;;7.69;74.90
6833;BME280;3454;42.654;23.378;2023-03-30T07:23:45;63764.16;;;7.91;74.70
6833;BME280;3454;42.654;23.378;2023-03-30T07:26:11;63787.94;;;8.11;73.33
6833;BME280;3454;42.654;23.378;2023-03-30T07:28:36;63806.75;;;8.30;72.20
6833;BME280;3454;42.654;23.378;2023-03-30T07:31:06;63809.47;;;8.33;72.06
6833;BME280;3454;42.654;23.378;2023-03-30T07:33:32;63811.44;;;8.32;71.43
6833;BME280;3454;42.654;23.378;2023-03-30T07:35:58;63810.03;;;8.33;70.56
6833;BME280;3454;42.654;23.378;2023-03-30T07:38:23;63794.72;;;8.19;70.71
6833;BME280;3454;42.654;23.378;2023-03-30T07:40:49;63826.72;;;8.46;70.01
6833;BME280;3454;42.654;23.378;2023-03-30T07:43:14;63837.00;;;8.61;70.49
6833;BME280;3454;42.654;23.378;2023-03-30T07:45:39;63870.97;;;8.87;69.77
6833;BME280;3454;42.654;23.378;2023-03-30T07:48:05;63838.09;;;8.62;68.07
6833;BME280;3454;42.654;23.378;2023-03-30T07:50:31;63856.78;;;8.74;67.34
6833;BME280;3454;42.654;23.378;2023-03-30T07:52:56;63820.41;;;8.43;68.64
6833;BME280;3454;42.654;23.378;2023-03-30T07:55:22;63837.13;;;8.56;68.36
6833;BME280;3454;42.654;23.378;2023-03-30T07:57:47;63861.91;;;8.81;68.69
6833;BME280;3454;42.654;23.378;2023-03-30T08:00:13;63841.69;;;8.63;68.92
6833;BME280;3454;42.654;23.378;2023-03-30T08:02:40;63876.31;;;8.97;67.50
6833;BME280;3454;42.654;23.378;2023-03-30T08:05:06;63928.03;;;9.42;65.41
6833;BME280;3454;42.654;23.378;2023-03-30T08:07:32;63958.09;;;9.70;64.08
6833;BME280;3454;42.654;23.378;2023-03-30T08:09:59;63966.50;;;9.80;63.84
6833;BME280;3454;42.654;23.378;2023-03-30T08:12:25;63959.75;;;9.71;65.63
6833;BME280;3454;42.654;23.378;2023-03-30T08:14:50;63984.13;;;9.91;63.48
6833;BME280;3454;42.654;23.378;2023-03-30T08:17:16;63968.50;;;9.79;61.84
6833;BME280;3454;42.654;23.378;2023-03-30T08:19:43;63962.13;;;9.76;62.54
6833;BME280;3454;42.654;23.378;2023-03-30T08:22:08;64007.56;;;10.18;61.84
6833;BME280;3454;42.654;23.378;2023-03-30T08:24:34;64031.00;;;10.32;60.07
6833;BME280;3454;42.654;23.378;2023-03-30T08:27:00;64004.59;;;10.12;61.09
6833;BME280;3454;42.654;23.378;2023-03-30T08:29:25;64032.84;;;10.36;60.49
6833;BME280;3454;42.654;23.378;2023-03-30T08:31:51;64045.84;;;10.53;60.18
6833;BME280;3454;42.654;23.378;2023-03-30T08:34:16;64083.72;;;10.83;60.93
6833;BME280;3454;42.654;23.378;2023-03-30T08:36:42;64086.38;;;10.90;60.85
6833;BME280;3454;42.654;23.378;2023-03-30T08:39:07;64101.25;;;10.99;59.50
6833;BME280;3454;42.654;23.378;2023-03-30T08:46:42;64191.13;;;11.82;56.96
6833;BME280;3454;42.654;23.378;2023-03-30T08:49:14;64206.66;;;11.98;55.11
6833;BME280;3454;42.654;23.378;2023-03-30T08:51:40;64238.13;;;12.29;54.60
6833;BME280;3454;42.654;23.378;2023-03-30T08:54:13;64229.38;;;12.21;53.61
6833;BME280;3454;42.654;23.378;2023-03-30T08:59:52;64291.31;;;12.78;53.80
6833;BME280;3454;42.654;23.378;2023-03-30T09:07:38;64259.50;;;12.49;52.28
6833;BME280;3454;42.654;23.378;2023-03-30T09:10:15;64308.88;;;12.94;49.28
6833;BME280;3454;42.654;23.378;2023-03-30T09:12:51;64380.56;;;13.58;47.45
6833;BME280;3454;42.654;23.378;2023-03-30T09:15:24;64419.22;;;13.95;45.71
6833;BME280;3454;42.654;23.378;2023-03-30T09:18:42;64444.81;;;14.16;44.87
6833;BME280;3454;42.654;23.378;2023-03-30T09:21:03;64369.56;;;13.47;45.89
6833;BME280;3454;42.654;23.378;2023-03-30T09:23:31;64367.38;;;13.45;46.29
6833;BME280;3454;42.654;23.378;2023-03-30T09:29:05;64298.44;;;12.85;46.42
6833;BME280;3454;42.654;23.378;2023-03-30T09:31:44;64268.50;;;12.59;47.33
6833;BME280;3454;42.654;23.378;2023-03-30T09:37:16;64368.50;;;13.46;46.81
6833;BME280;3454;42.654;23.378;2023-03-30T09:39:44;64389.00;;;13.68;45.70
6833;BME280;3454;42.654;23.378;2023-03-30T09:42:20;64358.28;;;13.39;45.46
6833;BME280;3454;42.654;23.378;2023-03-30T09:45:24;64262.81;;;12.52;46.21
6833;BME280;3454;42.654;23.378;2023-03-30T09:47:52;64262.81;;;12.52;47.04
6833;BME280;3454;42.654;23.378;2023-03-30T09:50:25;64266.09;;;12.55;46.46
6833;BME280;3454;42.654;23.378;2023-03-30T09:52:56;64281.78;;;12.67;46.23
6833;BME280;3454;42.654;23.378;2023-03-30T09:55:31;64308.66;;;12.92;45.76
6833;BME280;3454;42.654;23.378;2023-03-30T09:58:15;64288.13;;;12.71;45.96
6833;BME280;3454;42.654;23.378;2023-03-30T10:00:43;64291.84;;;12.79;44.54
6833;BME280;3454;42.654;23.378;2023-03-30T10:03:19;64200.63;;;11.93;45.03
6833;BME280;3454;42.654;23.378;2023-03-30T10:06:02;64166.88;;;11.64;45.79
6833;BME280;3454;42.654;23.378;2023-03-30T10:08:29;64161.72;;;11.57;46.27
6833;BME280;3454;42.654;23.378;2023-03-30T10:10:56;64229.38;;;12.21;45.18
6833;BME280;3454;42.654;23.378;2023-03-30T10:13:35;64245.94;;;12.32;45.36
6833;BME280;3454;42.654;23.378;2023-03-30T10:16:25;64218.19;;;12.09;45.63
6833;BME280;3454;42.654;23.378;2023-03-30T10:18:53;64224.22;;;12.14;45.55
6833;BME280;3454;42.654;23.378;2023-03-30T10:21:21;64226.94;;;12.17;45.12
6833;BME280;3454;42.654;23.378;2023-03-30T10:24:09;64281.78;;;12.67;43.92
6833;BME280;3454;42.654;23.378;2023-03-30T10:26:46;64301.53;;;12.85;44.05
6833;BME280;3454;42.654;23.378;2023-03-30T10:29:15;64358.28;;;13.39;44.26
6833;BME280;3454;42.654;23.378;2023-03-30T10:31:50;64487.13;;;14.55;41.82
6833;BME280;3454;42.654;23.378;2023-03-30T10:34:20;64508.78;;;14.77;40.88
6833;BME280;3454;42.654;23.378;2023-03-30T10:36:50;64382.22;;;13.59;41.66
6833;BME280;3454;42.654;23.378;2023-03-30T10:39:24;64424.47;;;13.98;41.42
6833;BME280;3454;42.654;23.378;2023-03-30T10:41:51;64454.69;;;14.25;40.79
6833;BME280;3454;42.654;23.378;2023-03-30T10:44:30;64473.59;;;14.45;40.52
6833;BME280;3454;42.654;23.378;2023-03-30T10:52:51;64478.91;;;14.48;41.85
6833;BME280;3454;42.654;23.378;2023-03-30T11:01:09;64526.13;;;14.91;40.50
6833;BME280;3454;42.654;23.378;2023-03-30T11:03:39;64476.47;;;14.43;40.74
6833;BME280;3454;42.654;23.378;2023-03-30T11:06:15;64350.59;;;13.32;42.47
6833;BME280;3454;42.654;23.378;2023-03-30T11:08:45;64385.72;;;13.65;42.92
6833;BME280;3454;42.654;23.378;2023-03-30T11:11:17;64336.31;;;13.19;42.46
6833;BME280;3454;42.654;23.378;2023-03-30T11:13:48;64327.53;;;13.11;42.45
6833;BME280;3454;42.654;23.378;2023-03-30T11:16:22;64367.59;;;13.48;42.19
6833;BME280;3454;42.654;23.378;2023-03-30T11:21:32;64428.00;;;14.03;41.28
6833;BME280;3454;42.654;23.378;2023-03-30T11:24:09;64493.16;;;14.61;40.92
6833;BME280;3454;42.654;23.378;2023-03-30T11:26:42;64490.63;;;14.61;40.68
6833;BME280;3454;42.654;23.378;2023-03-30T11:29:36;64547.59;;;15.10;40.08
6833;BME280;3454;42.654;23.378;2023-03-30T11:40:29;64698.00;;;16.50;37.28
6833;BME280;3454;42.654;23.378;2023-03-30T11:42:56;64753.97;;;16.99;36.64
6833;BME280;3454;42.654;23.378;2023-03-30T11:45:48;64674.31;;;16.29;37.63
6833;BME280;3454;42.654;23.378;2023-03-30T11:56:14;64566.81;;;15.28;39.04
6833;BME280;3454;42.654;23.378;2023-03-30T11:58:52;64658.34;;;16.14;38.69
6833;BME280;3454;42.654;23.378;2023-03-30T12:04:13;64715.63;;;16.66;36.74
6833;BME280;3454;42.654;23.378;2023-03-30T12:06:47;64577.28;;;15.38;37.79
6833;BME280;3454;42.654;23.378;2023-03-30T12:09:26;64604.47;;;15.65;38.09
6833;BME280;3454;42.654;23.378;2023-03-30T12:17:10;64648.47;;;16.05;36.39
6833;BME280;3454;42.654;23.378;2023-03-30T12:19:41;64668.28;;;16.23;36.83
6833;BME280;3454;42.654;23.378;2023-03-30T12:22:15;64647.16;;;16.02;36.94
6833;BME280;3454;42.654;23.378;2023-03-30T12:24:50;64764.63;;;17.11;34.93
6833;BME280;3454;42.654;23.378;2023-03-30T12:27:18;64737.78;;;16.82;35.20
6833;BME280;3454;42.654;23.378;2023-03-30T12:29:50;64728.31;;;16.78;35.20
6833;BME280;3454;42.654;23.378;2023-03-30T12:32:24;64653.22;;;16.07;34.92
6833;BME280;3454;42.654;23.378;2023-03-30T12:34:50;64638.03;;;15.95;35.55
6833;BME280;3454;42.654;23.378;2023-03-30T12:42:26;64766.84;;;17.13;33.82
6833;BME280;3454;42.654;23.378;2023-03-30T12:48:05;64862.19;;;18.00;33.42
6833;BME280;3454;42.654;23.378;2023-03-30T12:56:05;64873.78;;;18.11;32.25
6833;BME280;3454;42.654;23.378;2023-03-30T12:59:03;64838.50;;;17.79;33.09
6833;BME280;3454;42.654;23.378;2023-03-30T13:04:34;65006.19;;;19.32;31.98
6833;BME280;3454;42.654;23.378;2023-03-30T13:07:05;64995.69;;;19.22;31.38
6833;BME280;3454;42.654;23.378;2023-03-30T13:14:13;64731.06;;;16.81;33.77
6833;BME280;3454;42.654;23.378;2023-03-30T13:16:01;64783.72;;;17.26;33.75
6833;BME280;3454;42.654;23.378;2023-03-30T13:25:52;64841.03;;;17.79;32.98
6833;BME280;3454;42.654;23.378;2023-03-30T13:42:26;65020.56;;;19.45;31.30
6833;BME280;3454;42.654;23.378;2023-03-30T13:47:30;65083.16;;;20.04;30.56
6833;BME280;3454;42.654;23.378;2023-03-30T13:49:59;65031.03;;;19.54;31.26
6833;BME280;3454;42.654;23.378;2023-03-30T13:52:36;65035.47;;;19.58;30.39
6833;BME280;3454;42.654;23.378;2023-03-30T13:55:04;65064.38;;;19.87;29.98
6833;BME280;3454;42.654;23.378;2023-03-30T13:57:38;65090.69;;;20.08;30.29
6833;BME280;3454;42.654;23.378;2023-03-30T14:02:49;65018.34;;;19.43;30.63
6833;BME280;3454;42.654;23.378;2023-03-30T14:05:23;64969.97;;;19.01;30.27
6833;BME280;3454;42.654;23.378;2023-03-30T14:07:55;64921.41;;;18.57;31.46
6833;BME280;3454;42.654;23.378;2023-03-30T14:10:21;64826.91;;;17.68;32.38
6833;BME280;3454;42.654;23.378;2023-03-30T14:12:51;64857.56;;;17.94;32.15
6833;BME280;3454;42.654;23.378;2023-03-30T14:15:23;64727.53;;;16.75;33.21
6833;BME280;3454;42.654;23.378;2023-03-30T14:17:54;64737.66;;;16.87;33.73
6833;BME280;3454;42.654;23.378;2023-03-30T14:20:50;64770.91;;;17.19;33.15
6833;BME280;3454;42.654;23.378;2023-03-30T14:23:31;64790.53;;;17.35;32.66
6833;BME280;3454;42.654;23.378;2023-03-30T14:26:01;64796.59;;;17.40;32.49
6833;BME280;3454;42.654;23.378;2023-03-30T14:28:29;64781.72;;;17.27;32.77
6833;BME280;3454;42.654;23.378;2023-03-30T14:31:00;64768.50;;;17.15;33.35
6833;BME280;3454;42.654;23.378;2023-03-30T14:33:30;64765.53;;;17.10;34.15
6833;BME280;3454;42.654;23.378;2023-03-30T14:35:59;64750.66;;;16.96;35.42
6833;BME280;3454;42.654;23.378;2023-03-30T14:38:32;64721.13;;;16.71;34.91
6833;BME280;3454;42.654;23.378;2023-03-30T14:41:16;64683.69;;;16.37;33.98
6833;BME280;3454;42.654;23.378;2023-03-30T14:43:54;64647.16;;;16.02;34.68
6833;BME280;3454;42.654;23.378;2023-03-30T14:46:22;64653.44;;;16.10;35.15
6833;BME280;3454;42.654;23.378;2023-03-30T14:48:49;64669.38;;;16.24;35.34
6833;BME280;3454;42.654;23.378;2023-03-30T14:54:01;64763.53;;;17.10;33.92
6833;BME280;3454;42.654;23.378;2023-03-30T14:56:27;64763.34;;;17.08;33.25
6833;BME280;3454;42.654;23.378;2023-03-30T14:58:54;64787.22;;;17.32;32.74
6833;BME280;3454;42.654;23.378;2023-03-30T15:01:28;64752.53;;;17.00;33.17
6833;BME280;3454;42.654;23.378;2023-03-30T15:03:58;64703.53;;;16.55;33.92
6833;BME280;3454;42.654;23.378;2023-03-30T15:06:27;64753.63;;;17.01;33.22
6833;BME280;3454;42.654;23.378;2023-03-30T15:09:00;64863.84;;;18.02;32.27
6833;BME280;3454;42.654;23.378;2023-03-30T15:11:27;64903.00;;;18.37;32.45
6833;BME280;3454;42.654;23.378;2023-03-30T15:13:55;64859.09;;;18.00;32.12
6833;BME280;3454;42.654;23.378;2023-03-30T15:16:27;64868.06;;;18.03;32.05
6833;BME280;3454;42.654;23.378;2023-03-30T15:19:10;64949.34;;;18.80;31.06
6833;BME280;3454;42.654;23.378;2023-03-30T15:21:37;64990.72;;;19.17;31.11
6833;BME280;3454;42.654;23.378;2023-03-30T15:24:06;65051.47;;;19.73;30.28
6833;BME280;3454;42.654;23.378;2023-03-30T15:26:33;65067.50;;;19.87;29.69
6833;BME280;3454;42.654;23.378;2023-03-30T15:28:59;65102.31;;;20.19;29.83
6833;BME280;3454;42.654;23.378;2023-03-30T15:31:31;65111.69;;;20.28;29.89
6833;BME280;3454;42.654;23.378;2023-03-30T15:33:57;65134.53;;;20.51;29.43
6833;BME280;3454;42.654;23.378;2023-03-30T15:36:36;65084.81;;;20.05;30.76
6833;BME280;3454;42.654;23.378;2023-03-30T15:39:03;65102.84;;;20.20;31.73
6833;BME280;3454;42.654;23.378;2023-03-30T15:42:01;65129.38;;;20.44;30.21
6833;BME280;3454;42.654;23.378;2023-03-30T15:44:33;65120.53;;;20.36;28.95
6833;BME280;3454;42.654;23.378;2023-03-30T15:47:00;65064.16;;;19.84;29.57
6833;BME280;3454;42.654;23.378;2023-03-30T15:49:38;65024.41;;;19.48;30.46
6833;BME280;3454;42.654;23.378;2023-03-30T15:52:30;65039.31;;;19.62;30.00
6833;BME280;3454;42.654;23.378;2023-03-30T15:55:13;65049.81;;;19.71;29.65
6833;BME280;3454;42.654;23.378;2023-03-30T15:57:45;65022.78;;;19.47;29.83
6833;BME280;3454;42.654;23.378;2023-03-30T16:00:17;64949.91;;;18.80;30.46
6833;BME280;3454;42.654;23.378;2023-03-30T16:02:55;64915.16;;;18.49;32.62
6833;BME280;3454;42.654;23.378;2023-03-30T16:05:32;64916.81;;;18.50;33.89
6833;BME280;3454;42.654;23.378;2023-03-30T16:07:58;64909.75;;;18.39;35.71